Terminal Aerodrome Forecast
Issued by NWS

Home | Current Version | Previous Version | Text Only | Print | Product List | Glossary On
Versions: 1 2 3 4 5 6 7 8 9 10 11 12
000
FTUS41 KBTV 291130
TAFPBG
TAF
KPBG 291130Z 2912/3012 17004KT P6SM SCT200
     FM291600 18010KT P6SM VCSH BKN060
     FM300000 18011G20KT P6SM VCSH BKN130
     FM300600 17007KT P6SM VCSH OVC070=

USA.gov is the U.S. government's official web portal to all federal, state and local government web resources and services.